LFPG/CDG METAR and TAF weather

Enter ICAO airport designator
Station Type Date Time Source
LFPG METAR 2020/07/15 07:30 UTC NOAA

LFPG 150730Z 28006KT 260V320 9999 BKN011 BKN110 16/14 Q1015 BECMG SCT012


Station Type Date Time Source
LFPG Decoded METAR 2020/07/15 07:30 UTC NOAA

Paris-Aeroport Charles De Gaulle, France (LFPG) 49-01N 002-32E 109M
Jul 15, 2020 - 03:30 AM EDT / 2020.07.15 0730 UTC
Wind: from the W (280 degrees) at 7 MPH (6 KT) (direction variable):0
Visibility: greater than 7 mile(s):0
Sky conditions: mostly cloudy
Temperature: 60 F (16 C)
Dew Point: 57 F (14 C)
Relative Humidity: 87%
Pressure (altimeter): 29.97 in. Hg (1015 hPa)
ob: LFPG 150730Z 28006KT 260V320 9999 BKN011 BKN110 16/14 Q1015 BECMG SCT012
cycle: 7

Station Type Date Time Source
LFPG TAF 2020/07/15 06:54 UTC NOAA

TAF
AMD LFPG 150628Z 1506/1612 31005KT 9999 BKN008 TX22/1514Z TN14/1606Z
BECMG 1506/1508 SCT012 BKN045 PROB30
TEMPO 1509/1512 FEW020TCU

Example: see airport list